createdAt,value
2023-04-28T00:01:00.555Z,82.00
2023-04-28T00:03:28.713Z,82.00
2023-04-28T00:05:57.451Z,82.10
2023-04-28T00:08:27.040Z,82.20
2023-04-28T00:10:54.749Z,80.20
2023-04-28T00:13:22.460Z,79.40
2023-04-28T00:15:54.145Z,79.90
2023-04-28T00:18:22.939Z,81.70
2023-04-28T00:20:50.729Z,82.00
2023-04-28T00:23:18.410Z,82.80
2023-04-28T00:25:46.095Z,82.90
2023-04-28T00:28:18.392Z,83.50
2023-04-28T00:30:56.080Z,82.90
2023-04-28T00:33:23.792Z,83.20
2023-04-28T00:35:59.272Z,83.20
2023-04-28T00:38:27.176Z,83.40
2023-04-28T00:40:55.033Z,83.80
2023-04-28T00:43:22.762Z,83.50
2023-04-28T00:45:50.878Z,84.00
2023-04-28T00:48:20.607Z,84.40
2023-04-28T00:50:49.283Z,84.30
2023-04-28T00:53:17.210Z,84.60
2023-04-28T00:55:45.693Z,84.10
2023-04-28T00:58:13.477Z,83.30
2023-04-28T01:00:41.251Z,83.00
2023-04-28T01:03:09.076Z,81.80
2023-04-28T01:05:38.553Z,81.40
2023-04-28T01:08:07.081Z,81.10
2023-04-28T01:10:35.212Z,81.00
2023-04-28T01:13:09.950Z,80.40
2023-04-28T01:15:38.033Z,80.50
2023-04-28T01:18:06.127Z,80.50
2023-04-28T01:20:34.211Z,80.30
2023-04-28T01:23:03.277Z,80.70
2023-04-28T01:25:32.412Z,80.30
2023-04-28T01:28:00.779Z,80.10
2023-04-28T01:30:30.256Z,80.10
2023-04-28T01:32:58.450Z,80.00
2023-04-28T01:35:26.573Z,80.30
2023-04-28T01:37:54.315Z,80.00
2023-04-28T01:40:22.030Z,79.30
2023-04-28T01:42:53.451Z,79.10
2023-04-28T01:45:21.344Z,79.30
2023-04-28T01:47:49.208Z,79.10
2023-04-28T01:50:17.097Z,78.50
2023-04-28T01:52:44.840Z,78.90
2023-04-28T01:55:12.607Z,80.30
2023-04-28T01:57:43.185Z,79.90
2023-04-28T02:00:12.890Z,80.90
2023-04-28T02:03:13.686Z,81.00
2023-04-28T02:05:41.508Z,80.40
2023-04-28T02:08:20.760Z,81.10
2023-04-28T02:10:50.901Z,82.90
2023-04-28T02:13:19.468Z,83.40
2023-04-28T02:15:49.520Z,83.90
2023-04-28T02:18:21.278Z,84.30
2023-04-28T02:20:58.375Z,84.80
2023-04-28T02:23:32.736Z,84.50
2023-04-28T02:26:08.703Z,84.70
2023-04-28T02:28:37.309Z,85.40
2023-04-28T02:31:08.849Z,84.90
2023-04-28T02:33:39.032Z,84.30
2023-04-28T02:36:07.907Z,85.00
2023-04-28T02:38:36.056Z,85.30
2023-04-28T02:41:05.530Z,85.20
2023-04-28T02:43:33.915Z,85.60
2023-04-28T02:46:02.017Z,85.90
2023-04-28T02:48:29.849Z,86.10
2023-04-28T02:51:00.426Z,86.50
2023-04-28T02:53:28.216Z,86.70
2023-04-28T02:55:56.806Z,86.00
2023-04-28T02:58:24.522Z,85.10
2023-04-28T03:00:52.292Z,85.90
2023-04-28T03:03:20.285Z,86.30
2023-04-28T03:05:48.086Z,85.80
2023-04-28T03:08:18.939Z,86.10
2023-04-28T03:10:46.644Z,85.60
2023-04-28T03:13:14.522Z,85.80
2023-04-28T03:15:44.677Z,86.00
2023-04-28T03:18:13.284Z,85.50
2023-04-28T03:20:41.212Z,85.00
2023-04-28T03:23:10.023Z,86.00
2023-04-28T03:25:39.151Z,86.30
2023-04-28T03:28:06.924Z,86.50
2023-04-28T03:30:36.126Z,86.60
2023-04-28T03:33:04.643Z,86.80
2023-04-28T03:35:32.429Z,87.00
2023-04-28T03:38:00.211Z,86.90
2023-04-28T03:40:28.306Z,86.60
2023-04-28T03:43:17.273Z,86.20
2023-04-28T03:46:00.510Z,86.30
2023-04-28T03:48:28.316Z,86.40
2023-04-28T03:50:56.458Z,86.60
2023-04-28T03:53:24.766Z,86.00
2023-04-28T03:55:52.478Z,86.50
2023-04-28T03:58:21.764Z,86.70
2023-04-28T04:00:49.610Z,86.90
2023-04-28T04:03:17.560Z,87.40
2023-04-28T04:05:46.095Z,87.90
2023-04-28T04:08:14.035Z,87.70
2023-04-28T04:10:41.926Z,87.70
2023-04-28T04:13:09.669Z,87.90
2023-04-28T04:15:41.747Z,87.60
2023-04-28T04:18:09.885Z,87.20
2023-04-28T04:20:57.752Z,86.80
2023-04-28T04:23:26.096Z,87.40
2023-04-28T04:25:54.313Z,88.00
2023-04-28T04:28:22.024Z,88.30
2023-04-28T04:30:51.114Z,88.90
2023-04-28T04:33:18.924Z,89.10
2023-04-28T04:35:48.005Z,89.50
2023-04-28T04:38:19.106Z,89.50
2023-04-28T04:40:48.083Z,89.50
2023-04-28T04:43:17.749Z,89.80
2023-04-28T04:45:52.878Z,89.80
2023-04-28T04:48:21.750Z,90.10
2023-04-28T04:50:49.637Z,90.50
2023-04-28T04:53:17.750Z,90.60
2023-04-28T04:55:47.721Z,90.70
2023-04-28T04:58:17.854Z,90.40
2023-04-28T05:01:09.523Z,90.40
2023-04-28T05:03:40.973Z,90.40
2023-04-28T05:06:11.192Z,90.40
2023-04-28T05:08:45.844Z,90.50
2023-04-28T05:11:17.633Z,90.50
2023-04-28T05:13:46.641Z,90.30
2023-04-28T05:16:17.642Z,90.20
2023-04-28T05:19:06.534Z,90.10
2023-04-28T05:21:37.405Z,90.00
2023-04-28T05:24:07.365Z,89.40
2023-04-28T05:26:36.795Z,89.70
2023-04-28T05:29:09.051Z,89.90
2023-04-28T05:31:38.299Z,89.80
2023-04-28T05:34:06.264Z,89.90
2023-04-28T05:36:34.081Z,89.90
2023-04-28T05:39:02.169Z,89.70
2023-04-28T05:41:29.913Z,89.80
2023-04-28T05:43:57.668Z,89.80
2023-04-28T05:46:30.646Z,90.00
2023-04-28T05:49:02.462Z,89.80
2023-04-28T05:51:34.894Z,89.20
2023-04-28T05:54:03.443Z,88.30
2023-04-28T05:56:32.782Z,88.10
2023-04-28T05:59:04.126Z,88.60
2023-04-28T06:01:32.366Z,89.10
2023-04-28T06:04:01.750Z,89.40
2023-04-28T06:06:29.867Z,89.20
2023-04-28T06:08:57.799Z,89.40
2023-04-28T06:11:26.999Z,89.20
2023-04-28T06:13:56.233Z,89.00
2023-04-28T06:16:26.207Z,89.00
2023-04-28T06:18:59.677Z,89.10
2023-04-28T06:21:32.180Z,89.00
2023-04-28T06:24:01.924Z,89.00
2023-04-28T06:26:30.796Z,89.00
2023-04-28T06:28:58.522Z,89.40
2023-04-28T06:31:26.390Z,89.80
2023-04-28T06:33:55.039Z,90.20
2023-04-28T06:36:25.470Z,90.50
2023-04-28T06:38:54.472Z,90.80
2023-04-28T06:41:23.784Z,91.20
2023-04-28T06:43:54.444Z,91.70
2023-04-28T06:46:28.563Z,92.00
2023-04-28T06:48:56.616Z,92.10
2023-04-28T06:51:24.275Z,92.20
2023-04-28T06:53:55.238Z,92.30
2023-04-28T06:56:23.344Z,92.40
2023-04-28T06:58:51.038Z,92.70
2023-04-28T07:01:18.798Z,92.30
2023-04-28T07:03:46.664Z,92.50
2023-04-28T07:06:14.823Z,93.00
2023-04-28T07:08:43.477Z,93.20
2023-04-28T07:11:12.669Z,93.70
2023-04-28T07:13:40.428Z,93.90
2023-04-28T07:16:08.281Z,94.10
2023-04-28T07:18:36.095Z,94.10
2023-04-28T07:21:07.590Z,94.00
2023-04-28T07:23:38.557Z,94.10
2023-04-28T07:26:08.041Z,94.20
2023-04-28T07:28:37.266Z,94.30
2023-04-28T07:31:06.291Z,94.30
2023-04-28T07:33:34.064Z,94.70
2023-04-28T07:36:05.171Z,95.00
2023-04-28T07:38:35.973Z,95.20
2023-04-28T07:41:07.687Z,95.30
2023-04-28T07:43:42.008Z,95.30
2023-04-28T07:46:09.958Z,95.40
2023-04-28T07:48:37.826Z,95.50
2023-04-28T07:51:05.602Z,96.00
2023-04-28T07:53:35.081Z,96.10
2023-04-28T07:56:02.843Z,96.30
2023-04-28T07:58:30.742Z,96.70
2023-04-28T08:00:59.999Z,96.80
2023-04-28T08:03:28.191Z,96.80
2023-04-28T08:05:56.449Z,96.80
2023-04-28T08:08:24.885Z,96.80
2023-04-28T08:10:52.815Z,96.80
2023-04-28T08:13:21.686Z,96.80
2023-04-28T08:15:51.040Z,96.80
2023-04-28T08:18:23.337Z,96.80
2023-04-28T08:20:51.950Z,96.80
2023-04-28T08:23:21.316Z,96.80
2023-04-28T08:25:50.430Z,96.80
2023-04-28T08:28:18.198Z,96.80
2023-04-28T08:30:46.080Z,96.80
2023-04-28T08:33:13.810Z,96.80
2023-04-28T08:35:42.984Z,96.80
2023-04-28T08:38:13.860Z,96.80
2023-04-28T08:40:42.596Z,96.80
2023-04-28T08:43:11.457Z,96.80
2023-04-28T08:45:43.106Z,96.80
2023-04-28T08:48:20.065Z,96.80
2023-04-28T08:50:52.981Z,96.80
2023-04-28T08:53:26.066Z,96.80
2023-04-28T08:55:56.571Z,96.80
2023-04-28T08:58:25.228Z,96.80
2023-04-28T09:00:53.569Z,96.80
2023-04-28T09:03:21.958Z,96.80
2023-04-28T09:05:51.371Z,96.80
2023-04-28T09:08:19.169Z,96.80
2023-04-28T09:10:46.859Z,96.80
2023-04-28T09:13:29.905Z,96.80
2023-04-28T09:16:01.661Z,96.80
2023-04-28T09:18:33.163Z,96.80
2023-04-28T09:21:08.096Z,96.80
2023-04-28T09:23:36.653Z,96.30
2023-04-28T09:26:06.317Z,96.40
2023-04-28T09:28:34.948Z,95.80
2023-04-28T09:31:03.710Z,95.80
2023-04-28T09:33:31.543Z,96.10
2023-04-28T09:35:59.328Z,96.20
2023-04-28T09:38:28.538Z,96.20
2023-04-28T09:40:58.791Z,96.20
2023-04-28T09:43:28.317Z,95.60
2023-04-28T09:45:56.671Z,95.30
2023-04-28T09:48:33.164Z,95.50
2023-04-28T09:51:03.076Z,95.60
2023-04-28T09:53:32.904Z,94.60
2023-04-28T09:56:03.274Z,93.90
2023-04-28T09:58:32.764Z,93.70
2023-04-28T10:01:02.178Z,92.70
2023-04-28T10:03:31.649Z,92.70
2023-04-28T10:06:00.340Z,93.40
2023-04-28T10:08:29.045Z,91.50
2023-04-28T10:10:58.682Z,92.60
2023-04-28T10:13:26.431Z,91.70
2023-04-28T10:15:55.843Z,91.40
2023-04-28T10:18:24.508Z,91.40
2023-04-28T10:20:59.285Z,92.30
2023-04-28T10:23:48.536Z,91.60
2023-04-28T10:26:22.469Z,91.70
2023-04-28T10:28:53.219Z,92.50
2023-04-28T10:31:23.758Z,90.60
2023-04-28T10:33:52.300Z,90.80
2023-04-28T10:36:50.712Z,90.60
2023-04-28T10:39:19.864Z,90.60
2023-04-28T10:41:49.858Z,89.80
2023-04-28T10:44:47.366Z,89.50
2023-04-28T10:47:17.542Z,89.30
2023-04-28T10:50:10.133Z,88.80
2023-04-28T10:52:50.402Z,88.30
2023-04-28T10:55:36.259Z,88.30
2023-04-28T10:58:34.101Z,87.70
2023-04-28T11:01:32.265Z,88.70
2023-04-28T11:04:14.158Z,87.80
2023-04-28T11:06:48.324Z,87.70
2023-04-28T11:09:52.439Z,87.40
2023-04-28T11:12:20.125Z,86.60
2023-04-28T11:14:54.715Z,84.80
2023-04-28T11:17:41.639Z,85.30
2023-04-28T11:20:15.191Z,84.50
2023-04-28T11:22:44.382Z,82.90
2023-04-28T11:25:12.340Z,83.00
2023-04-28T11:27:42.607Z,83.30
2023-04-28T11:30:22.112Z,83.90
2023-04-28T11:32:51.596Z,84.10
2023-04-28T11:35:20.850Z,83.20
2023-04-28T11:38:03.990Z,83.60
2023-04-28T11:40:32.100Z,83.40
2023-04-28T11:43:01.693Z,82.40
2023-04-28T11:45:29.751Z,82.80
2023-04-28T11:47:57.627Z,82.70
2023-04-28T11:50:38.253Z,83.00
2023-04-28T11:53:06.096Z,82.40
2023-04-28T11:55:33.803Z,82.00
2023-04-28T11:58:22.095Z,81.00
2023-04-28T12:01:08.178Z,82.00
2023-04-28T12:03:43.970Z,82.60
2023-04-28T12:06:13.477Z,81.80
2023-04-28T12:08:41.302Z,81.30
2023-04-28T12:11:10.704Z,81.40
2023-04-28T12:13:38.474Z,79.80
2023-04-28T12:16:07.710Z,80.60
2023-04-28T12:18:36.906Z,80.40
2023-04-28T12:21:05.088Z,80.90
2023-04-28T12:23:35.491Z,80.70
2023-04-28T12:26:05.201Z,79.60
2023-04-28T12:28:41.610Z,80.40
2023-04-28T12:31:13.005Z,80.50
2023-04-28T12:33:41.131Z,81.50
2023-04-28T12:36:08.906Z,80.50
2023-04-28T12:38:47.968Z,80.10
2023-04-28T12:41:16.453Z,80.50
2023-04-28T12:43:46.565Z,79.10
2023-04-28T12:46:15.605Z,78.40
2023-04-28T12:48:43.657Z,79.30
2023-04-28T12:51:11.372Z,79.90
2023-04-28T12:53:40.433Z,80.40
2023-04-28T12:56:08.378Z,81.30
2023-04-28T12:58:36.167Z,82.10
2023-04-28T13:01:04.427Z,82.60
2023-04-28T13:03:32.216Z,83.90
2023-04-28T13:06:00.278Z,85.70
2023-04-28T13:08:30.832Z,86.80
2023-04-28T13:11:00.344Z,88.00
2023-04-28T13:13:29.240Z,89.50
2023-04-28T13:15:57.050Z,89.20
2023-04-28T13:18:26.110Z,89.60
2023-04-28T13:20:54.757Z,89.50
2023-04-28T13:23:22.732Z,90.90
2023-04-28T13:25:51.326Z,91.00
2023-04-28T13:28:20.395Z,91.30
2023-04-28T13:30:48.097Z,91.30
2023-04-28T13:33:18.728Z,91.20
2023-04-28T13:35:46.707Z,91.60
2023-04-28T13:38:15.641Z,91.20
2023-04-28T13:40:44.564Z,93.00
2023-04-28T13:43:13.452Z,92.80
2023-04-28T13:45:42.552Z,92.80
2023-04-28T13:48:10.598Z,93.50
2023-04-28T13:50:41.861Z,94.30
2023-04-28T13:53:10.972Z,93.10
2023-04-28T13:55:38.877Z,94.30
2023-04-28T13:58:08.027Z,94.40
2023-04-28T14:00:39.001Z,94.10
2023-04-28T14:03:08.858Z,93.80
2023-04-28T14:05:48.199Z,92.80
2023-04-28T14:08:20.675Z,92.70
2023-04-28T14:10:52.046Z,92.50
2023-04-28T14:13:21.439Z,92.70
2023-04-28T14:15:58.443Z,94.00
2023-04-28T14:18:28.356Z,94.60
2023-04-28T14:20:59.572Z,94.90
2023-04-28T14:23:28.645Z,95.00
2023-04-28T14:25:57.898Z,94.50
2023-04-28T14:28:25.919Z,95.10
2023-04-28T14:30:55.465Z,95.50
2023-04-28T14:33:24.416Z,95.30
2023-04-28T14:35:53.759Z,95.20
2023-04-28T14:38:23.869Z,94.70
2023-04-28T14:40:51.859Z,94.10
2023-04-28T14:43:21.830Z,93.40
2023-04-28T14:45:50.232Z,93.80
2023-04-28T14:48:20.121Z,93.00
2023-04-28T14:50:49.255Z,92.30
2023-04-28T14:53:18.734Z,91.90
2023-04-28T14:55:46.587Z,91.40
2023-04-28T14:58:15.154Z,91.80
2023-04-28T15:00:43.550Z,91.90
2023-04-28T15:03:11.350Z,91.00
2023-04-28T15:05:39.355Z,91.30
2023-04-28T15:08:07.102Z,90.40
2023-04-28T15:10:40.369Z,90.70
2023-04-28T15:13:08.418Z,91.00
2023-04-28T15:15:36.743Z,91.00
2023-04-28T15:18:04.913Z,91.20
2023-04-28T15:20:37.725Z,91.60
2023-04-28T15:23:08.117Z,91.80
2023-04-28T15:25:38.590Z,92.20
2023-04-28T15:28:07.184Z,93.50
2023-04-28T15:30:36.457Z,94.50
2023-04-28T15:33:04.357Z,95.20
2023-04-28T15:35:35.313Z,94.80
2023-04-28T15:38:05.224Z,95.70
2023-04-28T15:40:32.918Z,96.40
2023-04-28T15:43:02.828Z,96.80
2023-04-28T15:45:34.974Z,96.80
2023-04-28T15:48:04.699Z,96.80
2023-04-28T15:50:33.886Z,96.80
2023-04-28T15:53:02.474Z,96.80
2023-04-28T15:55:32.618Z,96.80
2023-04-28T15:58:01.905Z,96.80
2023-04-28T16:00:29.825Z,96.80
2023-04-28T16:02:57.999Z,96.80
2023-04-28T16:05:26.219Z,96.80
2023-04-28T16:07:55.045Z,96.80
2023-04-28T16:10:22.763Z,96.80
2023-04-28T16:12:50.704Z,96.80
2023-04-28T16:15:21.704Z,96.50
2023-04-28T16:17:51.891Z,96.10
2023-04-28T16:20:23.078Z,96.00
2023-04-28T16:22:50.777Z,96.10
2023-04-28T16:25:19.046Z,96.00
2023-04-28T16:27:46.919Z,96.20
2023-04-28T16:30:15.009Z,96.10
2023-04-28T16:32:44.081Z,96.10
2023-04-28T16:35:15.139Z,96.00
2023-04-28T16:37:43.852Z,96.10
2023-04-28T16:40:13.078Z,96.80
2023-04-28T16:42:41.925Z,96.20
2023-04-28T16:45:10.658Z,96.10
2023-04-28T16:47:40.771Z,96.80
2023-04-28T16:50:13.381Z,96.80
2023-04-28T16:52:43.192Z,96.20
2023-04-28T16:55:11.283Z,95.90
2023-04-28T16:57:39.024Z,95.40
2023-04-28T17:00:11.672Z,94.70
2023-04-28T17:02:41.111Z,94.50
2023-04-28T17:05:11.105Z,94.00
2023-04-28T17:07:40.057Z,94.10
2023-04-28T17:10:11.038Z,94.60
2023-04-28T17:12:45.086Z,94.80
2023-04-28T17:15:16.826Z,94.50
2023-04-28T17:17:44.649Z,94.60
2023-04-28T17:20:16.609Z,94.30
2023-04-28T17:22:44.392Z,94.60
2023-04-28T17:25:13.180Z,94.30
2023-04-28T17:27:40.974Z,94.70
2023-04-28T17:30:11.141Z,95.10
2023-04-28T17:32:39.364Z,95.50
2023-04-28T17:35:07.687Z,95.80
2023-04-28T17:37:37.018Z,96.50
2023-04-28T17:40:05.025Z,95.90
2023-04-28T17:42:32.999Z,96.00
2023-04-28T17:45:00.668Z,95.90
2023-04-28T17:47:28.669Z,95.70
2023-04-28T17:49:56.721Z,96.10
2023-04-28T17:52:24.503Z,96.10
2023-04-28T17:54:54.248Z,96.10
2023-04-28T17:57:22.054Z,96.20
2023-04-28T17:59:51.500Z,96.30
2023-04-28T18:02:20.513Z,96.20
2023-04-28T18:04:48.899Z,96.20
2023-04-28T18:07:16.784Z,95.70
2023-04-28T18:09:44.510Z,95.60
2023-04-28T18:12:13.530Z,95.70
2023-04-28T18:14:44.261Z,95.60
2023-04-28T18:17:13.758Z,95.50
2023-04-28T18:19:43.154Z,95.70
2023-04-28T18:22:12.547Z,95.90
2023-04-28T18:24:40.798Z,96.20
2023-04-28T18:27:08.817Z,96.50
2023-04-28T18:29:38.676Z,96.80
2023-04-28T18:32:06.772Z,96.80
2023-04-28T18:34:34.584Z,96.80
2023-04-28T18:37:13.662Z,96.80
2023-04-28T18:39:41.519Z,96.80
2023-04-28T18:42:10.262Z,96.80
2023-04-28T18:44:39.562Z,96.80
2023-04-28T18:47:07.433Z,96.80
2023-04-28T18:49:35.419Z,96.80
2023-04-28T18:52:03.537Z,96.80
2023-04-28T18:54:31.360Z,96.80
2023-04-28T18:56:59.570Z,96.80
2023-04-28T18:59:29.271Z,96.80
2023-04-28T19:01:58.466Z,96.80
2023-04-28T19:04:27.131Z,96.80
2023-04-28T19:06:55.796Z,96.80
2023-04-28T19:09:24.376Z,96.80
2023-04-28T19:11:52.228Z,96.80
2023-04-28T19:14:22.331Z,96.80
2023-04-28T19:16:51.171Z,96.80
2023-04-28T19:19:20.467Z,96.80
2023-04-28T19:21:49.924Z,96.80
2023-04-28T19:24:17.915Z,96.80
2023-04-28T19:26:45.660Z,96.80
2023-04-28T19:29:16.901Z,96.80
2023-04-28T19:31:44.810Z,96.80
2023-04-28T19:34:13.748Z,96.80
2023-04-28T19:36:43.837Z,96.80
2023-04-28T19:39:11.892Z,96.80
2023-04-28T19:41:39.566Z,96.80
2023-04-28T19:44:09.198Z,96.80
2023-04-28T19:46:37.167Z,96.80
2023-04-28T19:49:04.948Z,96.80
2023-04-28T19:51:32.929Z,96.80
2023-04-28T19:54:04.182Z,96.80
2023-04-28T19:56:35.293Z,96.80
2023-04-28T19:59:04.779Z,96.80
2023-04-28T20:01:32.563Z,96.80
2023-04-28T20:04:01.336Z,96.80
2023-04-28T20:06:29.408Z,96.80
2023-04-28T20:08:57.090Z,96.80
2023-04-28T20:11:26.119Z,96.80
2023-04-28T20:13:53.959Z,96.80
2023-04-28T20:16:24.758Z,96.80
2023-04-28T20:18:52.746Z,96.80
2023-04-28T20:21:21.026Z,96.80
2023-04-28T20:23:48.757Z,96.80
2023-04-28T20:26:17.061Z,96.80
2023-04-28T20:28:47.415Z,96.80
2023-04-28T20:31:16.072Z,96.80
2023-04-28T20:33:43.805Z,96.80
2023-04-28T20:36:13.922Z,96.80
2023-04-28T20:38:42.900Z,96.80
2023-04-28T20:41:13.643Z,96.80
2023-04-28T20:43:42.348Z,96.80
2023-04-28T20:46:13.444Z,96.80
2023-04-28T20:48:41.472Z,96.80
2023-04-28T20:51:10.664Z,96.80
2023-04-28T20:53:39.515Z,96.80
2023-04-28T20:56:08.297Z,96.80
2023-04-28T20:58:36.281Z,96.80
2023-04-28T21:01:04.495Z,96.80
2023-04-28T21:03:34.709Z,96.80
2023-04-28T21:06:02.593Z,96.80
2023-04-28T21:08:30.635Z,96.80
2023-04-28T21:10:58.451Z,96.80
2023-04-28T21:13:26.332Z,96.80
2023-04-28T21:15:53.992Z,96.80
2023-04-28T21:18:21.783Z,96.80
2023-04-28T21:20:51.659Z,96.80
2023-04-28T21:23:19.558Z,96.80
2023-04-28T21:25:47.170Z,96.80
2023-04-28T21:28:17.178Z,96.80
2023-04-28T21:30:44.870Z,96.80
2023-04-28T21:33:13.127Z,96.80
2023-04-28T21:35:40.916Z,96.80
2023-04-28T21:38:10.869Z,96.80
2023-04-28T21:40:38.807Z,96.80
2023-04-28T21:43:06.826Z,96.80
2023-04-28T21:45:34.824Z,96.80
2023-04-28T21:48:02.678Z,96.80
2023-04-28T21:50:31.424Z,96.80
2023-04-28T21:52:59.240Z,96.80
2023-04-28T21:55:28.236Z,96.80
2023-04-28T21:57:58.044Z,96.80
2023-04-28T22:00:29.356Z,96.80
2023-04-28T22:02:58.496Z,96.80
2023-04-28T22:05:26.604Z,96.80
2023-04-28T22:07:54.359Z,96.80
2023-04-28T22:10:22.662Z,96.80
2023-04-28T22:12:53.947Z,96.80
2023-04-28T22:15:21.626Z,96.80
2023-04-28T22:17:49.544Z,96.80
2023-04-28T22:20:17.471Z,96.80
2023-04-28T22:22:45.246Z,96.80
2023-04-28T22:25:13.210Z,96.80
2023-04-28T22:27:41.190Z,96.80
2023-04-28T22:30:10.974Z,96.80
2023-04-28T22:32:38.940Z,96.80
2023-04-28T22:35:07.442Z,96.80
2023-04-28T22:37:35.527Z,96.80
2023-04-28T22:40:04.534Z,96.80
2023-04-28T22:42:32.553Z,96.80
2023-04-28T22:45:02.533Z,96.80
2023-04-28T22:47:32.698Z,96.80
2023-04-28T22:50:00.968Z,96.80
2023-04-28T22:52:29.321Z,96.80
2023-04-28T22:54:57.018Z,96.80
2023-04-28T22:57:24.804Z,96.80
2023-04-28T22:59:52.960Z,96.80
2023-04-28T23:02:22.632Z,96.80
2023-04-28T23:04:51.986Z,96.80
2023-04-28T23:07:23.137Z,96.80
2023-04-28T23:09:50.949Z,96.80
2023-04-28T23:12:19.010Z,96.80
2023-04-28T23:14:46.652Z,96.80
2023-04-28T23:17:14.350Z,96.80
2023-04-28T23:19:42.027Z,96.80
2023-04-28T23:22:11.072Z,96.80
2023-04-28T23:24:39.814Z,96.80
2023-04-28T23:27:07.712Z,96.80
2023-04-28T23:29:36.023Z,96.80
2023-04-28T23:32:04.189Z,96.80
2023-04-28T23:34:31.977Z,96.80
2023-04-28T23:36:59.702Z,96.80
2023-04-28T23:39:29.906Z,96.80
2023-04-28T23:41:58.502Z,96.80
2023-04-28T23:44:26.227Z,96.80
2023-04-28T23:46:56.001Z,96.80
2023-04-28T23:49:24.016Z,96.80
2023-04-28T23:51:51.679Z,96.80
2023-04-28T23:54:19.331Z,96.80
2023-04-28T23:56:48.451Z,96.80
2023-04-28T23:59:16.134Z,96.80
